Forside
METAR-TAF:

METAR-TAF

Lufthavne :

Maputo, Mozambique

Breddekreds: 25-55S, længdekreds: 032-34E, højde: 39 m

Aktuelle vejr

Denne rapport blev lavet for 1 time og 9 minutter siden, kl. 17:00 UTC
Vind 5 kt fra sydøst
Temperatur 22°C
Fugtighed 83%
Tryk 1020 hPa
Sigt: 9000 m
Brudte skyer

METAR: FQMA 141700Z 13005KT 9000 BKN/// 22/19 Q1020 NOSIG RMK FU

Tid: 20:09 (18:09 UTC)

Vejrudsigter

Denne rapport blev lavet for 2 timer og 9 minutter siden, kl. 16:00 UTC
Foreløbig gælder fra 14 på 18 UTC til 15 på 24 UTC
Vind 13 kt fra østsydøst
Sigt 10 km eller mere
Brudte skyer i en højde af 2000 ft
ændring
fra 14 på 21 UTC til 14 på 23 UTC
Vind 8 kt fra syd
ændring
fra 15 på 04 UTC til 15 på 06 UTC
Vind 3 kt fra varierende retninger
ændring
fra 15 på 10 UTC til 15 på 12 UTC
Vind 12 kt fra nordøst
Nogle få skyer i en højde af 2000 ft

TAF: FQMA 141600Z 1418/1524 12013KT 9999 BKN020 BECMG 1421/1423 19008KT BECMG 1504/1506 VRB03KT BECMG 1510/1512 04012KT FEW020 TX32/1513Z TN17/1503Z

Vejrobservationer og prognoser fra mere end 4000 lufthavne (METAR og TAF).

De gule og røde prikker repræsenterer de meteorologiske stationer.

Flyt musen over at se navnet på stationen.

Så klik over at se vejr observationer og prognoser.

At skifte det kort: Klik på de grønne knapper med et sort kors for at zoome ind; på den grønne knap med en bindestreg for at zoome ud; eller på de grønne pile for tilstødende kort.


METAR-TAF: